sensor_id;sensor_type;location;lat;lon;timestamp;P1;durP1;ratioP1;P2;durP2;ratioP2
9773;SDS011;4926;42.670;23.316;2023-03-01T00:00:07;7.35;;;5.05;;
9773;SDS011;4926;42.670;23.316;2023-03-01T00:02:34;5.63;;;4.10;;
9773;SDS011;4926;42.670;23.316;2023-03-01T00:05:03;6.05;;;5.03;;
9773;SDS011;4926;42.670;23.316;2023-03-01T00:07:30;6.95;;;4.57;;
9773;SDS011;4926;42.670;23.316;2023-03-01T00:09:57;4.95;;;4.03;;
9773;SDS011;4926;42.670;23.316;2023-03-01T00:12:24;6.43;;;4.53;;
9773;SDS011;4926;42.670;23.316;2023-03-01T00:14:50;5.80;;;4.40;;
9773;SDS011;4926;42.670;23.316;2023-03-01T00:17:18;5.32;;;4.47;;
9773;SDS011;4926;42.670;23.316;2023-03-01T00:19:48;6.03;;;4.35;;
9773;SDS011;4926;42.670;23.316;2023-03-01T00:22:18;4.68;;;4.28;;
9773;SDS011;4926;42.670;23.316;2023-03-01T00:24:45;5.35;;;4.32;;
9773;SDS011;4926;42.670;23.316;2023-03-01T00:27:12;4.63;;;3.90;;
9773;SDS011;4926;42.670;23.316;2023-03-01T00:29:39;5.10;;;4.10;;
9773;SDS011;4926;42.670;23.316;2023-03-01T00:32:05;6.97;;;4.38;;
9773;SDS011;4926;42.670;23.316;2023-03-01T00:34:32;6.00;;;4.22;;
9773;SDS011;4926;42.670;23.316;2023-03-01T00:36:59;4.50;;;4.10;;
9773;SDS011;4926;42.670;23.316;2023-03-01T00:39:31;4.35;;;3.80;;
9773;SDS011;4926;42.670;23.316;2023-03-01T00:41:59;4.30;;;3.65;;
9773;SDS011;4926;42.670;23.316;2023-03-01T00:44:25;4.50;;;4.10;;
9773;SDS011;4926;42.670;23.316;2023-03-01T00:46:53;4.32;;;3.80;;
9773;SDS011;4926;42.670;23.316;2023-03-01T00:49:20;5.15;;;4.20;;
9773;SDS011;4926;42.670;23.316;2023-03-01T00:51:49;4.55;;;3.92;;
9773;SDS011;4926;42.670;23.316;2023-03-01T00:54:16;4.47;;;4.00;;
9773;SDS011;4926;42.670;23.316;2023-03-01T00:56:44;4.63;;;4.00;;
9773;SDS011;4926;42.670;23.316;2023-03-01T00:59:11;4.05;;;3.65;;
9773;SDS011;4926;42.670;23.316;2023-03-01T01:01:40;4.53;;;3.78;;
9773;SDS011;4926;42.670;23.316;2023-03-01T01:04:12;3.83;;;3.38;;
9773;SDS011;4926;42.670;23.316;2023-03-01T01:06:40;4.10;;;3.28;;
9773;SDS011;4926;42.670;23.316;2023-03-01T01:09:13;4.40;;;3.50;;
9773;SDS011;4926;42.670;23.316;2023-03-01T01:11:47;3.55;;;3.03;;
9773;SDS011;4926;42.670;23.316;2023-03-01T01:14:18;3.80;;;3.40;;
9773;SDS011;4926;42.670;23.316;2023-03-01T01:16:45;3.30;;;3.00;;
9773;SDS011;4926;42.670;23.316;2023-03-01T01:19:12;3.55;;;2.75;;
9773;SDS011;4926;42.670;23.316;2023-03-01T01:21:39;4.07;;;3.38;;
9773;SDS011;4926;42.670;23.316;2023-03-01T01:24:08;3.17;;;2.83;;
9773;SDS011;4926;42.670;23.316;2023-03-01T01:26:37;3.47;;;2.85;;
9773;SDS011;4926;42.670;23.316;2023-03-01T01:29:09;2.75;;;2.50;;
9773;SDS011;4926;42.670;23.316;2023-03-01T01:31:41;2.92;;;2.50;;
9773;SDS011;4926;42.670;23.316;2023-03-01T01:34:12;4.05;;;2.63;;
9773;SDS011;4926;42.670;23.316;2023-03-01T01:36:43;2.97;;;2.60;;
9773;SDS011;4926;42.670;23.316;2023-03-01T01:39:10;3.58;;;2.88;;
9773;SDS011;4926;42.670;23.316;2023-03-01T01:41:38;2.63;;;2.22;;
9773;SDS011;4926;42.670;23.316;2023-03-01T01:44:14;2.42;;;2.22;;
9773;SDS011;4926;42.670;23.316;2023-03-01T01:46:43;2.20;;;2.00;;
9773;SDS011;4926;42.670;23.316;2023-03-01T01:49:16;2.42;;;2.22;;
9773;SDS011;4926;42.670;23.316;2023-03-01T01:51:48;2.30;;;2.10;;
9773;SDS011;4926;42.670;23.316;2023-03-01T01:54:21;2.67;;;2.17;;
9773;SDS011;4926;42.670;23.316;2023-03-01T01:56:55;2.53;;;2.25;;
9773;SDS011;4926;42.670;23.316;2023-03-01T01:59:27;2.13;;;1.92;;
9773;SDS011;4926;42.670;23.316;2023-03-01T02:01:56;2.63;;;2.42;;
9773;SDS011;4926;42.670;23.316;2023-03-01T02:04:26;2.55;;;2.35;;
9773;SDS011;4926;42.670;23.316;2023-03-01T02:06:55;2.30;;;2.10;;
9773;SDS011;4926;42.670;23.316;2023-03-01T02:09:28;2.30;;;2.10;;
9773;SDS011;4926;42.670;23.316;2023-03-01T02:11:57;2.60;;;2.40;;
9773;SDS011;4926;42.670;23.316;2023-03-01T02:14:24;2.35;;;2.10;;
9773;SDS011;4926;42.670;23.316;2023-03-01T02:16:55;2.58;;;2.38;;
9773;SDS011;4926;42.670;23.316;2023-03-01T02:19:26;2.40;;;2.20;;
9773;SDS011;4926;42.670;23.316;2023-03-01T02:22:06;2.30;;;1.80;;
9773;SDS011;4926;42.670;23.316;2023-03-01T02:24:45;2.55;;;2.15;;
9773;SDS011;4926;42.670;23.316;2023-03-01T02:27:25;2.15;;;2.03;;
9773;SDS011;4926;42.670;23.316;2023-03-01T02:30:00;3.47;;;2.08;;
9773;SDS011;4926;42.670;23.316;2023-03-01T02:32:26;2.50;;;2.30;;
9773;SDS011;4926;42.670;23.316;2023-03-01T02:34:56;2.33;;;2.13;;
9773;SDS011;4926;42.670;23.316;2023-03-01T02:37:22;2.40;;;2.20;;
9773;SDS011;4926;42.670;23.316;2023-03-01T02:39:53;2.35;;;2.15;;
9773;SDS011;4926;42.670;23.316;2023-03-01T02:42:26;2.70;;;2.50;;
9773;SDS011;4926;42.670;23.316;2023-03-01T02:44:56;3.30;;;2.60;;
9773;SDS011;4926;42.670;23.316;2023-03-01T02:47:27;3.50;;;2.53;;
9773;SDS011;4926;42.670;23.316;2023-03-01T02:49:53;3.05;;;2.45;;
9773;SDS011;4926;42.670;23.316;2023-03-01T02:52:34;3.15;;;2.75;;
9773;SDS011;4926;42.670;23.316;2023-03-01T02:55:12;2.97;;;2.70;;
9773;SDS011;4926;42.670;23.316;2023-03-01T02:57:44;2.97;;;2.67;;
9773;SDS011;4926;42.670;23.316;2023-03-01T03:00:17;3.08;;;2.80;;
9773;SDS011;4926;42.670;23.316;2023-03-01T03:02:50;3.28;;;2.97;;
9773;SDS011;4926;42.670;23.316;2023-03-01T03:05:19;3.28;;;2.80;;
9773;SDS011;4926;42.670;23.316;2023-03-01T03:07:48;3.67;;;3.38;;
9773;SDS011;4926;42.670;23.316;2023-03-01T03:10:16;3.50;;;3.20;;
9773;SDS011;4926;42.670;23.316;2023-03-01T03:12:48;4.05;;;3.65;;
9773;SDS011;4926;42.670;23.316;2023-03-01T03:15:18;3.83;;;3.42;;
9773;SDS011;4926;42.670;23.316;2023-03-01T03:17:49;3.80;;;3.40;;
9773;SDS011;4926;42.670;23.316;2023-03-01T03:20:20;4.00;;;3.60;;
9773;SDS011;4926;42.670;23.316;2023-03-01T03:22:50;3.95;;;3.55;;
9773;SDS011;4926;42.670;23.316;2023-03-01T03:25:21;4.07;;;3.67;;
9773;SDS011;4926;42.670;23.316;2023-03-01T03:27:54;5.25;;;3.90;;
9773;SDS011;4926;42.670;23.316;2023-03-01T03:30:24;4.43;;;3.90;;
9773;SDS011;4926;42.670;23.316;2023-03-01T03:32:53;4.40;;;3.95;;
9773;SDS011;4926;42.670;23.316;2023-03-01T03:35:22;4.15;;;3.75;;
9773;SDS011;4926;42.670;23.316;2023-03-01T03:37:50;4.10;;;3.65;;
9773;SDS011;4926;42.670;23.316;2023-03-01T03:40:32;6.00;;;4.22;;
9773;SDS011;4926;42.670;23.316;2023-03-01T03:43:01;4.25;;;3.75;;
9773;SDS011;4926;42.670;23.316;2023-03-01T03:45:28;4.38;;;3.92;;
9773;SDS011;4926;42.670;23.316;2023-03-01T03:47:56;4.85;;;4.35;;
9773;SDS011;4926;42.670;23.316;2023-03-01T03:50:23;4.60;;;3.63;;
9773;SDS011;4926;42.670;23.316;2023-03-01T03:52:49;4.07;;;3.47;;
9773;SDS011;4926;42.670;23.316;2023-03-01T03:55:16;3.88;;;3.45;;
9773;SDS011;4926;42.670;23.316;2023-03-01T03:57:44;4.13;;;3.38;;
9773;SDS011;4926;42.670;23.316;2023-03-01T04:00:17;4.10;;;3.40;;
9773;SDS011;4926;42.670;23.316;2023-03-01T04:02:48;3.72;;;3.33;;
9773;SDS011;4926;42.670;23.316;2023-03-01T04:05:20;3.60;;;3.28;;
9773;SDS011;4926;42.670;23.316;2023-03-01T04:07:48;3.95;;;3.53;;
9773;SDS011;4926;42.670;23.316;2023-03-01T04:10:26;3.95;;;3.50;;
9773;SDS011;4926;42.670;23.316;2023-03-01T04:12:54;3.72;;;3.33;;
9773;SDS011;4926;42.670;23.316;2023-03-01T04:15:22;3.58;;;3.25;;
9773;SDS011;4926;42.670;23.316;2023-03-01T04:17:56;4.18;;;3.30;;
9773;SDS011;4926;42.670;23.316;2023-03-01T04:20:26;3.50;;;3.20;;
9773;SDS011;4926;42.670;23.316;2023-03-01T04:22:56;4.10;;;3.38;;
9773;SDS011;4926;42.670;23.316;2023-03-01T04:25:25;4.18;;;3.42;;
9773;SDS011;4926;42.670;23.316;2023-03-01T04:27:52;4.15;;;3.50;;
9773;SDS011;4926;42.670;23.316;2023-03-01T04:30:19;4.60;;;3.30;;
9773;SDS011;4926;42.670;23.316;2023-03-01T04:32:50;4.28;;;3.22;;
9773;SDS011;4926;42.670;23.316;2023-03-01T04:35:17;3.90;;;3.53;;
9773;SDS011;4926;42.670;23.316;2023-03-01T04:37:45;3.78;;;3.03;;
9773;SDS011;4926;42.670;23.316;2023-03-01T04:40:13;3.50;;;3.20;;
9773;SDS011;4926;42.670;23.316;2023-03-01T04:42:46;3.53;;;3.22;;
9773;SDS011;4926;42.670;23.316;2023-03-01T04:45:13;3.63;;;3.22;;
9773;SDS011;4926;42.670;23.316;2023-03-01T04:47:45;3.13;;;2.83;;
9773;SDS011;4926;42.670;23.316;2023-03-01T04:50:13;5.50;;;3.53;;
9773;SDS011;4926;42.670;23.316;2023-03-01T04:52:42;3.55;;;3.15;;
9773;SDS011;4926;42.670;23.316;2023-03-01T04:55:11;5.03;;;3.80;;
9773;SDS011;4926;42.670;23.316;2023-03-01T04:57:40;4.20;;;3.80;;
9773;SDS011;4926;42.670;23.316;2023-03-01T05:00:13;3.60;;;3.22;;
9773;SDS011;4926;42.670;23.316;2023-03-01T05:02:50;4.60;;;3.33;;
9773;SDS011;4926;42.670;23.316;2023-03-01T05:05:23;3.65;;;3.13;;
9773;SDS011;4926;42.670;23.316;2023-03-01T05:07:54;4.32;;;2.88;;
9773;SDS011;4926;42.670;23.316;2023-03-01T05:10:25;5.03;;;3.20;;
9773;SDS011;4926;42.670;23.316;2023-03-01T05:12:54;3.35;;;2.97;;
9773;SDS011;4926;42.670;23.316;2023-03-01T05:15:26;3.67;;;3.35;;
9773;SDS011;4926;42.670;23.316;2023-03-01T05:17:54;3.38;;;2.95;;
9773;SDS011;4926;42.670;23.316;2023-03-01T05:20:23;4.35;;;3.28;;
9773;SDS011;4926;42.670;23.316;2023-03-01T05:22:54;5.85;;;3.33;;
9773;SDS011;4926;42.670;23.316;2023-03-01T05:25:24;3.97;;;3.35;;
9773;SDS011;4926;42.670;23.316;2023-03-01T05:27:51;3.83;;;3.17;;
9773;SDS011;4926;42.670;23.316;2023-03-01T05:30:18;3.92;;;3.30;;
9773;SDS011;4926;42.670;23.316;2023-03-01T05:32:46;5.65;;;3.42;;
9773;SDS011;4926;42.670;23.316;2023-03-01T05:35:15;3.33;;;3.03;;
9773;SDS011;4926;42.670;23.316;2023-03-01T05:37:43;4.78;;;3.03;;
9773;SDS011;4926;42.670;23.316;2023-03-01T05:40:12;3.45;;;3.10;;
9773;SDS011;4926;42.670;23.316;2023-03-01T05:42:45;6.88;;;3.30;;
9773;SDS011;4926;42.670;23.316;2023-03-01T05:45:13;5.47;;;3.70;;
9773;SDS011;4926;42.670;23.316;2023-03-01T05:47:41;4.45;;;3.55;;
9773;SDS011;4926;42.670;23.316;2023-03-01T05:50:10;3.38;;;2.60;;
9773;SDS011;4926;42.670;23.316;2023-03-01T05:52:39;3.38;;;2.90;;
9773;SDS011;4926;42.670;23.316;2023-03-01T05:55:09;3.30;;;3.00;;
9773;SDS011;4926;42.670;23.316;2023-03-01T05:57:36;3.42;;;2.90;;
9773;SDS011;4926;42.670;23.316;2023-03-01T06:00:04;3.80;;;2.65;;
9773;SDS011;4926;42.670;23.316;2023-03-01T06:02:32;3.28;;;2.78;;
9773;SDS011;4926;42.670;23.316;2023-03-01T06:04:59;3.20;;;2.75;;
9773;SDS011;4926;42.670;23.316;2023-03-01T06:07:25;3.63;;;2.63;;
9773;SDS011;4926;42.670;23.316;2023-03-01T06:09:52;3.25;;;2.72;;
9773;SDS011;4926;42.670;23.316;2023-03-01T06:12:19;3.72;;;2.50;;
9773;SDS011;4926;42.670;23.316;2023-03-01T06:14:46;3.83;;;2.80;;
9773;SDS011;4926;42.670;23.316;2023-03-01T06:17:14;3.90;;;3.05;;
9773;SDS011;4926;42.670;23.316;2023-03-01T06:19:41;4.90;;;3.45;;
9773;SDS011;4926;42.670;23.316;2023-03-01T06:22:12;5.05;;;3.75;;
9773;SDS011;4926;42.670;23.316;2023-03-01T06:24:39;4.38;;;3.67;;
9773;SDS011;4926;42.670;23.316;2023-03-01T06:27:05;4.03;;;3.47;;
9773;SDS011;4926;42.670;23.316;2023-03-01T06:29:32;4.75;;;4.03;;
9773;SDS011;4926;42.670;23.316;2023-03-01T06:32:02;5.03;;;3.30;;
9773;SDS011;4926;42.670;23.316;2023-03-01T06:34:30;4.55;;;3.92;;
9773;SDS011;4926;42.670;23.316;2023-03-01T06:36:59;4.57;;;3.63;;
9773;SDS011;4926;42.670;23.316;2023-03-01T06:39:30;5.18;;;3.90;;
9773;SDS011;4926;42.670;23.316;2023-03-01T06:41:57;5.07;;;3.90;;
9773;SDS011;4926;42.670;23.316;2023-03-01T06:44:23;10.07;;;3.80;;
9773;SDS011;4926;42.670;23.316;2023-03-01T06:46:52;5.50;;;3.50;;
9773;SDS011;4926;42.670;23.316;2023-03-01T06:49:21;5.32;;;3.50;;
9773;SDS011;4926;42.670;23.316;2023-03-01T06:51:49;4.53;;;3.75;;
9773;SDS011;4926;42.670;23.316;2023-03-01T06:54:16;7.05;;;3.78;;
9773;SDS011;4926;42.670;23.316;2023-03-01T06:56:46;4.85;;;3.05;;
9773;SDS011;4926;42.670;23.316;2023-03-01T06:59:16;6.00;;;3.40;;
9773;SDS011;4926;42.670;23.316;2023-03-01T07:01:43;5.00;;;3.13;;
9773;SDS011;4926;42.670;23.316;2023-03-01T07:04:13;3.80;;;2.83;;
9773;SDS011;4926;42.670;23.316;2023-03-01T07:06:40;4.70;;;3.20;;
9773;SDS011;4926;42.670;23.316;2023-03-01T07:09:08;4.85;;;3.28;;
9773;SDS011;4926;42.670;23.316;2023-03-01T07:11:35;4.90;;;3.88;;
9773;SDS011;4926;42.670;23.316;2023-03-01T07:14:01;4.55;;;3.47;;
9773;SDS011;4926;42.670;23.316;2023-03-01T07:16:31;5.03;;;3.53;;
9773;SDS011;4926;42.670;23.316;2023-03-01T07:18:58;4.38;;;3.25;;
9773;SDS011;4926;42.670;23.316;2023-03-01T07:21:25;3.88;;;2.85;;
9773;SDS011;4926;42.670;23.316;2023-03-01T07:23:57;3.65;;;2.60;;
9773;SDS011;4926;42.670;23.316;2023-03-01T07:26:27;4.68;;;2.97;;
9773;SDS011;4926;42.670;23.316;2023-03-01T07:29:00;6.13;;;2.88;;
9773;SDS011;4926;42.670;23.316;2023-03-01T07:31:27;4.50;;;2.85;;
9773;SDS011;4926;42.670;23.316;2023-03-01T07:33:53;3.47;;;2.78;;
9773;SDS011;4926;42.670;23.316;2023-03-01T07:36:20;3.42;;;2.70;;
9773;SDS011;4926;42.670;23.316;2023-03-01T07:38:47;5.22;;;2.97;;
9773;SDS011;4926;42.670;23.316;2023-03-01T07:41:14;5.43;;;2.88;;
9773;SDS011;4926;42.670;23.316;2023-03-01T07:43:43;6.35;;;2.65;;
9773;SDS011;4926;42.670;23.316;2023-03-01T07:46:10;5.03;;;2.90;;
9773;SDS011;4926;42.670;23.316;2023-03-01T07:48:52;3.70;;;3.00;;
9773;SDS011;4926;42.670;23.316;2023-03-01T07:51:18;3.50;;;3.00;;
9773;SDS011;4926;42.670;23.316;2023-03-01T07:53:45;3.95;;;3.13;;
9773;SDS011;4926;42.670;23.316;2023-03-01T07:56:13;3.30;;;3.00;;
9773;SDS011;4926;42.670;23.316;2023-03-01T07:58:47;4.13;;;3.20;;
9773;SDS011;4926;42.670;23.316;2023-03-01T08:01:15;4.45;;;3.45;;
9773;SDS011;4926;42.670;23.316;2023-03-01T08:03:42;6.15;;;3.17;;
9773;SDS011;4926;42.670;23.316;2023-03-01T08:06:10;3.67;;;3.25;;
9773;SDS011;4926;42.670;23.316;2023-03-01T08:08:38;3.45;;;3.00;;
9773;SDS011;4926;42.670;23.316;2023-03-01T08:11:09;5.07;;;3.20;;
9773;SDS011;4926;42.670;23.316;2023-03-01T08:13:37;3.40;;;2.88;;
9773;SDS011;4926;42.670;23.316;2023-03-01T08:16:06;4.38;;;3.08;;
9773;SDS011;4926;42.670;23.316;2023-03-01T08:18:34;4.57;;;2.67;;
9773;SDS011;4926;42.670;23.316;2023-03-01T08:21:04;3.85;;;2.60;;
9773;SDS011;4926;42.670;23.316;2023-03-01T08:23:32;5.35;;;3.00;;
9773;SDS011;4926;42.670;23.316;2023-03-01T08:26:03;3.20;;;2.83;;
9773;SDS011;4926;42.670;23.316;2023-03-01T08:28:31;12.43;;;4.53;;
9773;SDS011;4926;42.670;23.316;2023-03-01T08:30:58;4.78;;;3.38;;
9773;SDS011;4926;42.670;23.316;2023-03-01T08:33:29;6.05;;;3.72;;
9773;SDS011;4926;42.670;23.316;2023-03-01T08:36:02;4.65;;;3.10;;
9773;SDS011;4926;42.670;23.316;2023-03-01T08:38:32;4.45;;;3.40;;
9773;SDS011;4926;42.670;23.316;2023-03-01T08:40:59;4.68;;;3.70;;
9773;SDS011;4926;42.670;23.316;2023-03-01T08:43:26;8.52;;;4.70;;
9773;SDS011;4926;42.670;23.316;2023-03-01T08:45:53;5.32;;;4.10;;
9773;SDS011;4926;42.670;23.316;2023-03-01T08:48:20;5.07;;;4.00;;
9773;SDS011;4926;42.670;23.316;2023-03-01T08:50:48;4.18;;;3.30;;
9773;SDS011;4926;42.670;23.316;2023-03-01T08:53:20;3.05;;;2.75;;
9773;SDS011;4926;42.670;23.316;2023-03-01T08:55:46;4.20;;;3.08;;
9773;SDS011;4926;42.670;23.316;2023-03-01T08:58:13;5.13;;;3.35;;
9773;SDS011;4926;42.670;23.316;2023-03-01T09:00:42;6.20;;;3.28;;
9773;SDS011;4926;42.670;23.316;2023-03-01T09:03:12;3.50;;;3.20;;
9773;SDS011;4926;42.670;23.316;2023-03-01T09:05:39;5.88;;;3.25;;
9773;SDS011;4926;42.670;23.316;2023-03-01T09:08:07;4.13;;;3.50;;
9773;SDS011;4926;42.670;23.316;2023-03-01T09:10:36;4.22;;;3.10;;
9773;SDS011;4926;42.670;23.316;2023-03-01T09:13:04;3.92;;;3.42;;
9773;SDS011;4926;42.670;23.316;2023-03-01T09:15:30;3.92;;;3.53;;
9773;SDS011;4926;42.670;23.316;2023-03-01T09:18:02;3.70;;;3.40;;
9773;SDS011;4926;42.670;23.316;2023-03-01T09:20:30;3.75;;;3.25;;
9773;SDS011;4926;42.670;23.316;2023-03-01T09:23:08;4.20;;;3.17;;
9773;SDS011;4926;42.670;23.316;2023-03-01T09:25:35;5.15;;;3.17;;
9773;SDS011;4926;42.670;23.316;2023-03-01T09:28:02;3.22;;;2.60;;
9773;SDS011;4926;42.670;23.316;2023-03-01T09:30:29;3.28;;;2.88;;
9773;SDS011;4926;42.670;23.316;2023-03-01T09:32:56;3.10;;;2.63;;
9773;SDS011;4926;42.670;23.316;2023-03-01T09:35:23;4.60;;;2.67;;
9773;SDS011;4926;42.670;23.316;2023-03-01T09:37:50;3.63;;;2.88;;
9773;SDS011;4926;42.670;23.316;2023-03-01T09:40:21;3.75;;;2.15;;
9773;SDS011;4926;42.670;23.316;2023-03-01T09:42:51;2.97;;;2.53;;
9773;SDS011;4926;42.670;23.316;2023-03-01T09:45:26;4.90;;;1.95;;
9773;SDS011;4926;42.670;23.316;2023-03-01T09:47:58;3.45;;;1.85;;
9773;SDS011;4926;42.670;23.316;2023-03-01T09:50:28;2.88;;;2.58;;
9773;SDS011;4926;42.670;23.316;2023-03-01T09:53:06;4.22;;;2.35;;
9773;SDS011;4926;42.670;23.316;2023-03-01T09:55:42;2.83;;;2.13;;
9773;SDS011;4926;42.670;23.316;2023-03-01T09:58:25;3.00;;;2.05;;
9773;SDS011;4926;42.670;23.316;2023-03-01T10:01:02;3.10;;;2.00;;
9773;SDS011;4926;42.670;23.316;2023-03-01T10:06:37;2.13;;;1.85;;
9773;SDS011;4926;42.670;23.316;2023-03-01T10:09:06;5.50;;;2.00;;
9773;SDS011;4926;42.670;23.316;2023-03-01T10:11:38;2.80;;;2.20;;
9773;SDS011;4926;42.670;23.316;2023-03-01T10:14:13;3.20;;;2.00;;
9773;SDS011;4926;42.670;23.316;2023-03-01T10:16:50;3.53;;;2.60;;
9773;SDS011;4926;42.670;23.316;2023-03-01T10:19:27;2.83;;;2.47;;
9773;SDS011;4926;42.670;23.316;2023-03-01T10:21:57;3.53;;;2.50;;
9773;SDS011;4926;42.670;23.316;2023-03-01T10:24:29;2.33;;;2.10;;
9773;SDS011;4926;42.670;23.316;2023-03-01T10:27:03;4.53;;;2.78;;
9773;SDS011;4926;42.670;23.316;2023-03-01T10:29:34;3.33;;;2.58;;
9773;SDS011;4926;42.670;23.316;2023-03-01T10:32:10;3.17;;;2.50;;
9773;SDS011;4926;42.670;23.316;2023-03-01T10:34:40;4.72;;;3.00;;
9773;SDS011;4926;42.670;23.316;2023-03-01T10:37:10;3.17;;;2.80;;
9773;SDS011;4926;42.670;23.316;2023-03-01T10:39:54;2.85;;;2.53;;
9773;SDS011;4926;42.670;23.316;2023-03-01T10:42:29;3.40;;;2.90;;
9773;SDS011;4926;42.670;23.316;2023-03-01T10:44:57;3.47;;;2.83;;
9773;SDS011;4926;42.670;23.316;2023-03-01T10:47:40;4.10;;;2.80;;
9773;SDS011;4926;42.670;23.316;2023-03-01T10:50:17;3.15;;;2.50;;
9773;SDS011;4926;42.670;23.316;2023-03-01T10:52:55;3.38;;;2.30;;
9773;SDS011;4926;42.670;23.316;2023-03-01T10:55:26;3.42;;;3.00;;
9773;SDS011;4926;42.670;23.316;2023-03-01T10:58:15;3.28;;;2.90;;
9773;SDS011;4926;42.670;23.316;2023-03-01T11:00:46;3.22;;;2.78;;
9773;SDS011;4926;42.670;23.316;2023-03-01T11:03:21;4.28;;;2.90;;
9773;SDS011;4926;42.670;23.316;2023-03-01T11:05:51;4.35;;;2.90;;
9773;SDS011;4926;42.670;23.316;2023-03-01T11:08:33;3.65;;;2.75;;
9773;SDS011;4926;42.670;23.316;2023-03-01T11:13:59;3.22;;;2.90;;
9773;SDS011;4926;42.670;23.316;2023-03-01T11:16:34;2.35;;;2.08;;
9773;SDS011;4926;42.670;23.316;2023-03-01T11:21:53;2.85;;;2.55;;
9773;SDS011;4926;42.670;23.316;2023-03-01T11:24:24;6.45;;;3.17;;
9773;SDS011;4926;42.670;23.316;2023-03-01T11:26:56;3.05;;;2.60;;
9773;SDS011;4926;42.670;23.316;2023-03-01T11:29:30;5.57;;;2.75;;
9773;SDS011;4926;42.670;23.316;2023-03-01T11:32:03;3.03;;;2.40;;
9773;SDS011;4926;42.670;23.316;2023-03-01T11:34:38;3.85;;;2.90;;
9773;SDS011;4926;42.670;23.316;2023-03-01T11:37:13;3.67;;;2.67;;
9773;SDS011;4926;42.670;23.316;2023-03-01T11:39:51;2.80;;;2.50;;
9773;SDS011;4926;42.670;23.316;2023-03-01T11:42:33;3.22;;;2.83;;
9773;SDS011;4926;42.670;23.316;2023-03-01T11:45:14;2.85;;;2.50;;
9773;SDS011;4926;42.670;23.316;2023-03-01T11:47:51;3.25;;;2.95;;
9773;SDS011;4926;42.670;23.316;2023-03-01T11:50:29;2.90;;;2.60;;
9773;SDS011;4926;42.670;23.316;2023-03-01T11:53:09;3.47;;;2.95;;
9773;SDS011;4926;42.670;23.316;2023-03-01T11:55:57;4.65;;;3.25;;
9773;SDS011;4926;42.670;23.316;2023-03-01T11:58:34;3.00;;;2.70;;
9773;SDS011;4926;42.670;23.316;2023-03-01T12:01:16;5.40;;;3.22;;
9773;SDS011;4926;42.670;23.316;2023-03-01T12:04:09;15.07;;;3.13;;
9773;SDS011;4926;42.670;23.316;2023-03-01T12:06:52;4.40;;;3.78;;
9773;SDS011;4926;42.670;23.316;2023-03-01T12:09:27;5.55;;;3.72;;
9773;SDS011;4926;42.670;23.316;2023-03-01T12:14:59;4.00;;;3.60;;
9773;SDS011;4926;42.670;23.316;2023-03-01T12:20:39;6.15;;;4.03;;
9773;SDS011;4926;42.670;23.316;2023-03-01T12:23:20;4.45;;;3.53;;
9773;SDS011;4926;42.670;23.316;2023-03-01T12:26:06;8.85;;;4.28;;
9773;SDS011;4926;42.670;23.316;2023-03-01T12:28:52;4.15;;;3.25;;
9773;SDS011;4926;42.670;23.316;2023-03-01T12:34:38;4.47;;;3.83;;
9773;SDS011;4926;42.670;23.316;2023-03-01T12:37:21;4.53;;;4.05;;
9773;SDS011;4926;42.670;23.316;2023-03-01T12:39:59;3.85;;;3.40;;
9773;SDS011;4926;42.670;23.316;2023-03-01T12:42:44;4.10;;;3.10;;
9773;SDS011;4926;42.670;23.316;2023-03-01T12:45:34;4.75;;;3.13;;
9773;SDS011;4926;42.670;23.316;2023-03-01T12:48:22;5.00;;;4.32;;
9773;SDS011;4926;42.670;23.316;2023-03-01T12:51:02;4.43;;;3.67;;
9773;SDS011;4926;42.670;23.316;2023-03-01T12:53:34;5.40;;;3.75;;
9773;SDS011;4926;42.670;23.316;2023-03-01T12:56:05;4.60;;;3.15;;
9773;SDS011;4926;42.670;23.316;2023-03-01T12:58:35;5.85;;;3.40;;
9773;SDS011;4926;42.670;23.316;2023-03-01T13:01:14;5.43;;;4.45;;
9773;SDS011;4926;42.670;23.316;2023-03-01T13:03:55;3.63;;;3.22;;
9773;SDS011;4926;42.670;23.316;2023-03-01T13:06:38;6.93;;;3.97;;
9773;SDS011;4926;42.670;23.316;2023-03-01T13:09:14;4.07;;;3.60;;
9773;SDS011;4926;42.670;23.316;2023-03-01T13:11:51;4.28;;;3.88;;
9773;SDS011;4926;42.670;23.316;2023-03-01T13:17:20;4.85;;;3.97;;
9773;SDS011;4926;42.670;23.316;2023-03-01T13:19:59;5.47;;;4.20;;
9773;SDS011;4926;42.670;23.316;2023-03-01T13:22:39;4.70;;;3.97;;
9773;SDS011;4926;42.670;23.316;2023-03-01T13:25:13;6.50;;;3.95;;
9773;SDS011;4926;42.670;23.316;2023-03-01T13:27:43;4.60;;;3.17;;
9773;SDS011;4926;42.670;23.316;2023-03-01T13:36:06;3.40;;;3.10;;
9773;SDS011;4926;42.670;23.316;2023-03-01T13:38:37;3.75;;;3.22;;
9773;SDS011;4926;42.670;23.316;2023-03-01T13:41:11;4.40;;;3.40;;
9773;SDS011;4926;42.670;23.316;2023-03-01T13:43:46;4.55;;;3.30;;
9773;SDS011;4926;42.670;23.316;2023-03-01T13:46:16;4.18;;;3.70;;
9773;SDS011;4926;42.670;23.316;2023-03-01T13:48:47;4.55;;;3.75;;
9773;SDS011;4926;42.670;23.316;2023-03-01T13:51:23;5.57;;;3.53;;
9773;SDS011;4926;42.670;23.316;2023-03-01T13:54:01;5.05;;;4.20;;
9773;SDS011;4926;42.670;23.316;2023-03-01T13:56:29;5.10;;;3.47;;
9773;SDS011;4926;42.670;23.316;2023-03-01T13:59:04;5.85;;;4.50;;
9773;SDS011;4926;42.670;23.316;2023-03-01T14:01:33;7.50;;;4.93;;
9773;SDS011;4926;42.670;23.316;2023-03-01T14:04:18;7.45;;;3.72;;
9773;SDS011;4926;42.670;23.316;2023-03-01T14:06:47;5.43;;;4.22;;
9773;SDS011;4926;42.670;23.316;2023-03-01T14:09:16;4.53;;;3.60;;
9773;SDS011;4926;42.670;23.316;2023-03-01T14:11:58;4.47;;;3.80;;
9773;SDS011;4926;42.670;23.316;2023-03-01T14:14:42;5.38;;;4.10;;
9773;SDS011;4926;42.670;23.316;2023-03-01T14:17:20;5.18;;;3.88;;
9773;SDS011;4926;42.670;23.316;2023-03-01T14:20:02;6.03;;;4.07;;
9773;SDS011;4926;42.670;23.316;2023-03-01T14:22:37;8.88;;;5.40;;
9773;SDS011;4926;42.670;23.316;2023-03-01T14:25:19;5.95;;;4.15;;
9773;SDS011;4926;42.670;23.316;2023-03-01T14:30:42;4.90;;;3.20;;
9773;SDS011;4926;42.670;23.316;2023-03-01T14:33:18;4.88;;;3.72;;
9773;SDS011;4926;42.670;23.316;2023-03-01T14:35:57;5.50;;;4.07;;
9773;SDS011;4926;42.670;23.316;2023-03-01T14:38:29;5.45;;;3.60;;
9773;SDS011;4926;42.670;23.316;2023-03-01T14:41:07;4.50;;;3.15;;
9773;SDS011;4926;42.670;23.316;2023-03-01T14:43:36;3.88;;;3.28;;
9773;SDS011;4926;42.670;23.316;2023-03-01T14:46:16;4.22;;;3.35;;
9773;SDS011;4926;42.670;23.316;2023-03-01T14:48:45;8.98;;;3.72;;
9773;SDS011;4926;42.670;23.316;2023-03-01T14:51:14;3.85;;;3.03;;
9773;SDS011;4926;42.670;23.316;2023-03-01T14:53:43;5.38;;;3.20;;
9773;SDS011;4926;42.670;23.316;2023-03-01T14:56:13;3.13;;;2.42;;
9773;SDS011;4926;42.670;23.316;2023-03-01T14:58:42;6.07;;;2.83;;
9773;SDS011;4926;42.670;23.316;2023-03-01T15:01:10;3.67;;;2.83;;
9773;SDS011;4926;42.670;23.316;2023-03-01T15:03:46;4.13;;;2.80;;
9773;SDS011;4926;42.670;23.316;2023-03-01T15:06:15;3.97;;;2.58;;
9773;SDS011;4926;42.670;23.316;2023-03-01T15:08:46;4.30;;;2.88;;
9773;SDS011;4926;42.670;23.316;2023-03-01T15:11:19;5.18;;;3.13;;
9773;SDS011;4926;42.670;23.316;2023-03-01T15:13:49;4.35;;;2.90;;
9773;SDS011;4926;42.670;23.316;2023-03-01T15:16:16;4.20;;;2.92;;
9773;SDS011;4926;42.670;23.316;2023-03-01T15:18:45;5.40;;;3.60;;
9773;SDS011;4926;42.670;23.316;2023-03-01T15:21:18;4.68;;;2.92;;
9773;SDS011;4926;42.670;23.316;2023-03-01T15:23:51;7.50;;;3.15;;
9773;SDS011;4926;42.670;23.316;2023-03-01T15:26:25;4.68;;;3.67;;
9773;SDS011;4926;42.670;23.316;2023-03-01T15:28:55;8.57;;;5.20;;
9773;SDS011;4926;42.670;23.316;2023-03-01T15:31:27;5.32;;;3.45;;
9773;SDS011;4926;42.670;23.316;2023-03-01T15:36:48;5.43;;;4.03;;
9773;SDS011;4926;42.670;23.316;2023-03-01T15:39:27;5.30;;;3.80;;
9773;SDS011;4926;42.670;23.316;2023-03-01T15:42:07;5.60;;;3.83;;
9773;SDS011;4926;42.670;23.316;2023-03-01T15:44:36;5.03;;;3.75;;
9773;SDS011;4926;42.670;23.316;2023-03-01T15:47:08;8.30;;;3.72;;
9773;SDS011;4926;42.670;23.316;2023-03-01T15:49:51;6.07;;;3.65;;
9773;SDS011;4926;42.670;23.316;2023-03-01T15:52:22;7.05;;;4.68;;
9773;SDS011;4926;42.670;23.316;2023-03-01T15:54:54;7.78;;;5.15;;
9773;SDS011;4926;42.670;23.316;2023-03-01T15:57:24;6.10;;;4.53;;